sensor_id;sensor_type;location;lat;lon;timestamp;P1;durP1;ratioP1;P2;durP2;ratioP2
76566;SDS011;65428;53.194;6.132;2023-04-25T00:01:20;16.90;;;3.33;;
76566;SDS011;65428;53.194;6.132;2023-04-25T00:03:47;18.50;;;3.53;;
76566;SDS011;65428;53.194;6.132;2023-04-25T00:06:13;13.48;;;3.42;;
76566;SDS011;65428;53.194;6.132;2023-04-25T00:08:38;16.10;;;3.63;;
76566;SDS011;65428;53.194;6.132;2023-04-25T00:11:04;14.70;;;2.67;;
76566;SDS011;65428;53.194;6.132;2023-04-25T00:13:30;12.77;;;2.67;;
76566;SDS011;65428;53.194;6.132;2023-04-25T00:15:56;14.90;;;3.00;;
76566;SDS011;65428;53.194;6.132;2023-04-25T00:18:23;12.82;;;2.53;;
76566;SDS011;65428;53.194;6.132;2023-04-25T00:20:48;15.48;;;2.72;;
76566;SDS011;65428;53.194;6.132;2023-04-25T00:23:15;15.43;;;2.95;;
76566;SDS011;65428;53.194;6.132;2023-04-25T00:25:52;14.60;;;2.28;;
76566;SDS011;65428;53.194;6.132;2023-04-25T00:28:18;18.70;;;2.80;;
76566;SDS011;65428;53.194;6.132;2023-04-25T00:30:43;14.43;;;2.33;;
76566;SDS011;65428;53.194;6.132;2023-04-25T00:33:09;16.77;;;2.22;;
76566;SDS011;65428;53.194;6.132;2023-04-25T00:35:35;16.80;;;2.70;;
76566;SDS011;65428;53.194;6.132;2023-04-25T00:38:01;13.30;;;1.95;;
76566;SDS011;65428;53.194;6.132;2023-04-25T00:40:27;14.02;;;1.95;;
76566;SDS011;65428;53.194;6.132;2023-04-25T00:42:53;17.80;;;2.50;;
76566;SDS011;65428;53.194;6.132;2023-04-25T00:45:19;14.63;;;2.53;;
76566;SDS011;65428;53.194;6.132;2023-04-25T00:47:45;14.60;;;2.10;;
76566;SDS011;65428;53.194;6.132;2023-04-25T00:50:12;16.30;;;2.67;;
76566;SDS011;65428;53.194;6.132;2023-04-25T00:52:43;14.52;;;2.72;;
76566;SDS011;65428;53.194;6.132;2023-04-25T00:55:09;15.88;;;2.75;;
76566;SDS011;65428;53.194;6.132;2023-04-25T00:57:37;17.27;;;3.22;;
76566;SDS011;65428;53.194;6.132;2023-04-25T01:00:07;14.65;;;2.40;;
76566;SDS011;65428;53.194;6.132;2023-04-25T01:02:34;15.88;;;2.67;;
76566;SDS011;65428;53.194;6.132;2023-04-25T01:05:01;18.10;;;2.67;;
76566;SDS011;65428;53.194;6.132;2023-04-25T01:07:27;19.45;;;2.67;;
76566;SDS011;65428;53.194;6.132;2023-04-25T01:09:53;14.45;;;2.25;;
76566;SDS011;65428;53.194;6.132;2023-04-25T01:12:19;17.02;;;2.92;;
76566;SDS011;65428;53.194;6.132;2023-04-25T01:14:45;18.40;;;2.58;;
76566;SDS011;65428;53.194;6.132;2023-04-25T01:17:11;15.60;;;2.40;;
76566;SDS011;65428;53.194;6.132;2023-04-25T01:19:38;17.40;;;3.00;;
76566;SDS011;65428;53.194;6.132;2023-04-25T01:22:04;17.00;;;2.40;;
76566;SDS011;65428;53.194;6.132;2023-04-25T01:24:33;14.43;;;2.50;;
76566;SDS011;65428;53.194;6.132;2023-04-25T01:27:02;15.60;;;2.83;;
76566;SDS011;65428;53.194;6.132;2023-04-25T01:29:28;16.03;;;2.27;;
76566;SDS011;65428;53.194;6.132;2023-04-25T01:31:54;12.15;;;1.83;;
76566;SDS011;65428;53.194;6.132;2023-04-25T01:34:20;15.27;;;2.28;;
76566;SDS011;65428;53.194;6.132;2023-04-25T01:36:48;15.13;;;2.40;;
76566;SDS011;65428;53.194;6.132;2023-04-25T01:39:15;15.48;;;2.42;;
76566;SDS011;65428;53.194;6.132;2023-04-25T01:41:41;12.70;;;1.73;;
76566;SDS011;65428;53.194;6.132;2023-04-25T01:44:07;14.95;;;2.28;;
76566;SDS011;65428;53.194;6.132;2023-04-25T01:46:33;16.17;;;2.53;;
76566;SDS011;65428;53.194;6.132;2023-04-25T01:48:59;14.63;;;1.85;;
76566;SDS011;65428;53.194;6.132;2023-04-25T01:51:25;13.18;;;1.38;;
76566;SDS011;65428;53.194;6.132;2023-04-25T01:53:51;12.07;;;1.42;;
76566;SDS011;65428;53.194;6.132;2023-04-25T01:56:17;11.88;;;1.52;;
76566;SDS011;65428;53.194;6.132;2023-04-25T01:58:43;10.98;;;1.40;;
76566;SDS011;65428;53.194;6.132;2023-04-25T02:01:11;13.37;;;1.60;;
76566;SDS011;65428;53.194;6.132;2023-04-25T02:03:37;12.13;;;1.57;;
76566;SDS011;65428;53.194;6.132;2023-04-25T02:06:03;9.83;;;1.43;;
76566;SDS011;65428;53.194;6.132;2023-04-25T02:08:29;9.37;;;1.40;;
76566;SDS011;65428;53.194;6.132;2023-04-25T02:10:55;11.98;;;1.20;;
76566;SDS011;65428;53.194;6.132;2023-04-25T02:13:20;11.03;;;1.10;;
76566;SDS011;65428;53.194;6.132;2023-04-25T02:15:46;10.90;;;1.48;;
76566;SDS011;65428;53.194;6.132;2023-04-25T02:18:12;14.82;;;1.90;;
76566;SDS011;65428;53.194;6.132;2023-04-25T02:20:38;12.63;;;1.75;;
76566;SDS011;65428;53.194;6.132;2023-04-25T02:23:03;13.13;;;1.73;;
76566;SDS011;65428;53.194;6.132;2023-04-25T02:25:29;11.67;;;1.77;;
76566;SDS011;65428;53.194;6.132;2023-04-25T02:27:55;12.38;;;1.70;;
76566;SDS011;65428;53.194;6.132;2023-04-25T02:30:20;14.30;;;2.30;;
76566;SDS011;65428;53.194;6.132;2023-04-25T02:32:46;13.80;;;1.83;;
76566;SDS011;65428;53.194;6.132;2023-04-25T02:35:12;8.85;;;0.80;;
76566;SDS011;65428;53.194;6.132;2023-04-25T02:37:38;3.38;;;0.30;;
76566;SDS011;65428;53.194;6.132;2023-04-25T02:40:05;6.60;;;0.50;;
76566;SDS011;65428;53.194;6.132;2023-04-25T02:42:31;5.97;;;0.55;;
76566;SDS011;65428;53.194;6.132;2023-04-25T02:44:57;8.25;;;0.85;;
76566;SDS011;65428;53.194;6.132;2023-04-25T02:47:23;6.53;;;0.67;;
76566;SDS011;65428;53.194;6.132;2023-04-25T02:49:48;6.70;;;0.70;;
76566;SDS011;65428;53.194;6.132;2023-04-25T02:52:14;5.80;;;0.60;;
76566;SDS011;65428;53.194;6.132;2023-04-25T02:54:40;6.40;;;0.70;;
76566;SDS011;65428;53.194;6.132;2023-04-25T02:57:06;8.30;;;0.80;;
76566;SDS011;65428;53.194;6.132;2023-04-25T02:59:32;7.93;;;1.30;;
76566;SDS011;65428;53.194;6.132;2023-04-25T03:01:58;8.13;;;1.02;;
76566;SDS011;65428;53.194;6.132;2023-04-25T03:04:24;8.55;;;0.95;;
76566;SDS011;65428;53.194;6.132;2023-04-25T03:06:50;7.22;;;1.08;;
76566;SDS011;65428;53.194;6.132;2023-04-25T03:09:16;9.80;;;1.20;;
76566;SDS011;65428;53.194;6.132;2023-04-25T03:11:42;12.27;;;1.60;;
76566;SDS011;65428;53.194;6.132;2023-04-25T03:14:08;9.30;;;1.35;;
76566;SDS011;65428;53.194;6.132;2023-04-25T03:16:34;5.63;;;0.73;;
76566;SDS011;65428;53.194;6.132;2023-04-25T03:18:59;8.30;;;1.23;;
76566;SDS011;65428;53.194;6.132;2023-04-25T03:21:25;10.25;;;1.15;;
76566;SDS011;65428;53.194;6.132;2023-04-25T03:23:51;10.75;;;1.25;;
76566;SDS011;65428;53.194;6.132;2023-04-25T03:26:17;10.70;;;1.10;;
76566;SDS011;65428;53.194;6.132;2023-04-25T03:28:42;10.83;;;0.90;;
76566;SDS011;65428;53.194;6.132;2023-04-25T03:31:08;12.57;;;1.40;;
76566;SDS011;65428;53.194;6.132;2023-04-25T03:33:34;10.05;;;1.15;;
76566;SDS011;65428;53.194;6.132;2023-04-25T03:35:59;10.45;;;1.23;;
76566;SDS011;65428;53.194;6.132;2023-04-25T03:38:25;10.43;;;1.20;;
76566;SDS011;65428;53.194;6.132;2023-04-25T03:40:51;12.05;;;1.02;;
76566;SDS011;65428;53.194;6.132;2023-04-25T03:43:16;10.60;;;1.63;;
76566;SDS011;65428;53.194;6.132;2023-04-25T03:45:42;15.10;;;1.45;;
76566;SDS011;65428;53.194;6.132;2023-04-25T03:48:08;12.70;;;1.60;;
76566;SDS011;65428;53.194;6.132;2023-04-25T03:50:34;11.77;;;1.70;;
76566;SDS011;65428;53.194;6.132;2023-04-25T03:53:00;13.57;;;1.63;;
76566;SDS011;65428;53.194;6.132;2023-04-25T03:55:25;17.38;;;2.25;;
76566;SDS011;65428;53.194;6.132;2023-04-25T03:57:51;12.60;;;1.83;;
76566;SDS011;65428;53.194;6.132;2023-04-25T04:00:16;12.83;;;1.73;;
76566;SDS011;65428;53.194;6.132;2023-04-25T04:02:42;14.00;;;1.87;;
76566;SDS011;65428;53.194;6.132;2023-04-25T04:05:08;12.90;;;1.80;;
76566;SDS011;65428;53.194;6.132;2023-04-25T04:07:34;12.48;;;1.88;;
76566;SDS011;65428;53.194;6.132;2023-04-25T04:10:05;12.13;;;1.40;;
76566;SDS011;65428;53.194;6.132;2023-04-25T04:12:34;12.13;;;1.20;;
76566;SDS011;65428;53.194;6.132;2023-04-25T04:14:59;11.73;;;1.35;;
76566;SDS011;65428;53.194;6.132;2023-04-25T04:17:26;12.68;;;1.52;;
76566;SDS011;65428;53.194;6.132;2023-04-25T04:19:51;13.30;;;1.13;;
76566;SDS011;65428;53.194;6.132;2023-04-25T04:22:17;11.10;;;1.70;;
76566;SDS011;65428;53.194;6.132;2023-04-25T04:24:42;13.00;;;1.40;;
76566;SDS011;65428;53.194;6.132;2023-04-25T04:27:11;16.95;;;2.03;;
76566;SDS011;65428;53.194;6.132;2023-04-25T04:29:37;15.25;;;1.58;;
76566;SDS011;65428;53.194;6.132;2023-04-25T04:32:03;11.00;;;1.65;;
76566;SDS011;65428;53.194;6.132;2023-04-25T04:34:29;14.80;;;2.38;;
76566;SDS011;65428;53.194;6.132;2023-04-25T04:36:56;15.13;;;2.13;;
76566;SDS011;65428;53.194;6.132;2023-04-25T04:39:22;15.10;;;2.03;;
76566;SDS011;65428;53.194;6.132;2023-04-25T04:41:47;15.85;;;2.00;;
76566;SDS011;65428;53.194;6.132;2023-04-25T04:44:13;13.07;;;2.10;;
76566;SDS011;65428;53.194;6.132;2023-04-25T04:46:39;12.68;;;1.67;;
76566;SDS011;65428;53.194;6.132;2023-04-25T04:49:07;12.68;;;1.92;;
76566;SDS011;65428;53.194;6.132;2023-04-25T04:51:34;11.65;;;1.48;;
76566;SDS011;65428;53.194;6.132;2023-04-25T04:53:59;14.75;;;1.95;;
76566;SDS011;65428;53.194;6.132;2023-04-25T04:56:28;16.40;;;1.95;;
76566;SDS011;65428;53.194;6.132;2023-04-25T04:58:56;12.95;;;1.58;;
76566;SDS011;65428;53.194;6.132;2023-04-25T05:01:22;17.02;;;2.13;;
76566;SDS011;65428;53.194;6.132;2023-04-25T05:03:48;13.32;;;1.73;;
76566;SDS011;65428;53.194;6.132;2023-04-25T05:06:14;10.80;;;1.35;;
76566;SDS011;65428;53.194;6.132;2023-04-25T05:08:39;14.63;;;1.90;;
76566;SDS011;65428;53.194;6.132;2023-04-25T05:11:05;13.60;;;1.80;;
76566;SDS011;65428;53.194;6.132;2023-04-25T05:13:31;13.10;;;1.50;;
76566;SDS011;65428;53.194;6.132;2023-04-25T05:15:56;9.17;;;1.00;;
76566;SDS011;65428;53.194;6.132;2023-04-25T05:18:22;12.97;;;1.37;;
76566;SDS011;65428;53.194;6.132;2023-04-25T05:20:47;11.27;;;2.00;;
76566;SDS011;65428;53.194;6.132;2023-04-25T05:23:13;10.07;;;1.10;;
76566;SDS011;65428;53.194;6.132;2023-04-25T05:25:38;10.02;;;1.27;;
76566;SDS011;65428;53.194;6.132;2023-04-25T05:28:04;8.30;;;1.30;;
76566;SDS011;65428;53.194;6.132;2023-04-25T05:30:30;10.02;;;1.40;;
76566;SDS011;65428;53.194;6.132;2023-04-25T05:32:56;7.15;;;0.80;;
76566;SDS011;65428;53.194;6.132;2023-04-25T05:35:21;12.30;;;1.10;;
76566;SDS011;65428;53.194;6.132;2023-04-25T05:37:47;10.38;;;0.90;;
76566;SDS011;65428;53.194;6.132;2023-04-25T05:40:13;8.90;;;1.05;;
76566;SDS011;65428;53.194;6.132;2023-04-25T05:42:38;7.87;;;0.93;;
76566;SDS011;65428;53.194;6.132;2023-04-25T05:45:04;9.30;;;0.80;;
76566;SDS011;65428;53.194;6.132;2023-04-25T05:47:30;8.30;;;1.20;;
76566;SDS011;65428;53.194;6.132;2023-04-25T05:49:56;7.88;;;0.90;;
76566;SDS011;65428;53.194;6.132;2023-04-25T05:52:21;9.15;;;1.08;;
76566;SDS011;65428;53.194;6.132;2023-04-25T05:54:47;10.53;;;1.30;;
76566;SDS011;65428;53.194;6.132;2023-04-25T05:57:23;6.67;;;0.67;;
76566;SDS011;65428;53.194;6.132;2023-04-25T05:59:50;5.13;;;0.50;;
76566;SDS011;65428;53.194;6.132;2023-04-25T06:02:16;7.18;;;0.63;;
76566;SDS011;65428;53.194;6.132;2023-04-25T06:04:42;3.67;;;0.40;;
76566;SDS011;65428;53.194;6.132;2023-04-25T06:07:08;4.13;;;0.30;;
76566;SDS011;65428;53.194;6.132;2023-04-25T06:09:33;5.65;;;0.40;;
76566;SDS011;65428;53.194;6.132;2023-04-25T06:11:59;3.53;;;0.45;;
76566;SDS011;65428;53.194;6.132;2023-04-25T06:14:26;4.18;;;0.47;;
76566;SDS011;65428;53.194;6.132;2023-04-25T06:16:51;5.38;;;0.45;;
76566;SDS011;65428;53.194;6.132;2023-04-25T06:19:17;6.32;;;0.60;;
76566;SDS011;65428;53.194;6.132;2023-04-25T06:21:43;6.30;;;0.50;;
76566;SDS011;65428;53.194;6.132;2023-04-25T06:24:09;6.40;;;0.63;;
76566;SDS011;65428;53.194;6.132;2023-04-25T06:26:35;6.97;;;0.50;;
76566;SDS011;65428;53.194;6.132;2023-04-25T06:29:00;7.10;;;0.50;;
76566;SDS011;65428;53.194;6.132;2023-04-25T06:31:26;7.30;;;0.50;;
76566;SDS011;65428;53.194;6.132;2023-04-25T06:33:53;5.25;;;0.30;;
76566;SDS011;65428;53.194;6.132;2023-04-25T06:36:22;5.45;;;0.45;;
76566;SDS011;65428;53.194;6.132;2023-04-25T06:38:53;7.05;;;0.55;;
76566;SDS011;65428;53.194;6.132;2023-04-25T06:41:19;8.05;;;0.50;;
76566;SDS011;65428;53.194;6.132;2023-04-25T06:43:45;6.07;;;0.75;;
76566;SDS011;65428;53.194;6.132;2023-04-25T06:46:11;6.30;;;0.50;;
76566;SDS011;65428;53.194;6.132;2023-04-25T06:48:37;7.28;;;0.65;;
76566;SDS011;65428;53.194;6.132;2023-04-25T06:51:03;6.50;;;0.60;;
76566;SDS011;65428;53.194;6.132;2023-04-25T06:53:29;8.53;;;0.90;;
76566;SDS011;65428;53.194;6.132;2023-04-25T06:55:54;6.90;;;0.60;;
76566;SDS011;65428;53.194;6.132;2023-04-25T06:58:20;8.85;;;0.98;;
76566;SDS011;65428;53.194;6.132;2023-04-25T07:00:46;8.37;;;0.77;;
76566;SDS011;65428;53.194;6.132;2023-04-25T07:03:11;5.90;;;0.40;;
76566;SDS011;65428;53.194;6.132;2023-04-25T07:05:37;4.05;;;0.45;;
76566;SDS011;65428;53.194;6.132;2023-04-25T07:08:03;5.03;;;0.70;;
76566;SDS011;65428;53.194;6.132;2023-04-25T07:10:28;4.17;;;0.40;;
76566;SDS011;65428;53.194;6.132;2023-04-25T07:12:54;5.25;;;0.45;;
76566;SDS011;65428;53.194;6.132;2023-04-25T07:15:20;4.90;;;0.40;;
76566;SDS011;65428;53.194;6.132;2023-04-25T07:17:45;3.90;;;0.40;;
76566;SDS011;65428;53.194;6.132;2023-04-25T07:20:11;4.03;;;0.30;;
76566;SDS011;65428;53.194;6.132;2023-04-25T07:22:37;3.22;;;0.30;;
76566;SDS011;65428;53.194;6.132;2023-04-25T07:25:02;5.30;;;0.43;;
76566;SDS011;65428;53.194;6.132;2023-04-25T07:27:29;4.72;;;0.50;;
76566;SDS011;65428;53.194;6.132;2023-04-25T07:29:55;5.50;;;0.82;;
76566;SDS011;65428;53.194;6.132;2023-04-25T07:32:21;6.82;;;0.50;;
76566;SDS011;65428;53.194;6.132;2023-04-25T07:34:47;5.15;;;1.20;;
76566;SDS011;65428;53.194;6.132;2023-04-25T07:37:13;5.82;;;0.50;;
76566;SDS011;65428;53.194;6.132;2023-04-25T07:39:39;7.47;;;0.55;;
76566;SDS011;65428;53.194;6.132;2023-04-25T07:42:05;4.97;;;0.40;;
76566;SDS011;65428;53.194;6.132;2023-04-25T07:44:33;6.82;;;0.60;;
76566;SDS011;65428;53.194;6.132;2023-04-25T07:47:04;5.78;;;0.60;;
76566;SDS011;65428;53.194;6.132;2023-04-25T07:49:33;4.85;;;0.50;;
76566;SDS011;65428;53.194;6.132;2023-04-25T07:52:02;8.63;;;1.02;;
76566;SDS011;65428;53.194;6.132;2023-04-25T07:54:29;8.00;;;0.60;;
76566;SDS011;65428;53.194;6.132;2023-04-25T07:56:55;7.20;;;0.55;;
76566;SDS011;65428;53.194;6.132;2023-04-25T07:59:21;6.22;;;0.63;;
76566;SDS011;65428;53.194;6.132;2023-04-25T08:01:46;6.57;;;0.50;;
76566;SDS011;65428;53.194;6.132;2023-04-25T08:04:12;5.63;;;0.50;;
76566;SDS011;65428;53.194;6.132;2023-04-25T08:06:38;4.17;;;0.40;;
76566;SDS011;65428;53.194;6.132;2023-04-25T08:09:05;6.07;;;0.40;;
76566;SDS011;65428;53.194;6.132;2023-04-25T08:11:31;6.00;;;0.60;;
76566;SDS011;65428;53.194;6.132;2023-04-25T08:13:56;6.00;;;0.65;;
76566;SDS011;65428;53.194;6.132;2023-04-25T08:16:22;6.40;;;0.50;;
76566;SDS011;65428;53.194;6.132;2023-04-25T08:18:48;6.97;;;0.85;;
76566;SDS011;65428;53.194;6.132;2023-04-25T08:21:14;4.97;;;0.60;;
76566;SDS011;65428;53.194;6.132;2023-04-25T08:23:40;6.97;;;0.60;;
76566;SDS011;65428;53.194;6.132;2023-04-25T08:26:06;4.87;;;0.80;;
76566;SDS011;65428;53.194;6.132;2023-04-25T08:28:32;6.47;;;0.50;;
76566;SDS011;65428;53.194;6.132;2023-04-25T08:30:57;5.10;;;0.60;;
76566;SDS011;65428;53.194;6.132;2023-04-25T08:33:23;4.15;;;0.22;;
76566;SDS011;65428;53.194;6.132;2023-04-25T08:35:49;3.65;;;0.30;;
76566;SDS011;65428;53.194;6.132;2023-04-25T08:38:15;5.43;;;0.37;;
76566;SDS011;65428;53.194;6.132;2023-04-25T08:40:40;4.67;;;0.43;;
76566;SDS011;65428;53.194;6.132;2023-04-25T08:43:08;6.18;;;0.52;;
76566;SDS011;65428;53.194;6.132;2023-04-25T08:45:38;7.03;;;0.50;;
76566;SDS011;65428;53.194;6.132;2023-04-25T08:48:11;6.72;;;0.70;;
76566;SDS011;65428;53.194;6.132;2023-04-25T08:50:51;8.25;;;0.50;;
76566;SDS011;65428;53.194;6.132;2023-04-25T08:53:21;11.23;;;0.90;;
76566;SDS011;65428;53.194;6.132;2023-04-25T08:55:50;8.75;;;0.80;;
76566;SDS011;65428;53.194;6.132;2023-04-25T08:58:18;8.50;;;0.70;;
76566;SDS011;65428;53.194;6.132;2023-04-25T09:00:43;10.85;;;0.90;;
76566;SDS011;65428;53.194;6.132;2023-04-25T09:03:12;10.00;;;1.55;;
76566;SDS011;65428;53.194;6.132;2023-04-25T09:05:38;9.07;;;1.20;;
76566;SDS011;65428;53.194;6.132;2023-04-25T09:08:05;7.60;;;0.75;;
76566;SDS011;65428;53.194;6.132;2023-04-25T09:10:31;8.38;;;0.77;;
76566;SDS011;65428;53.194;6.132;2023-04-25T09:13:06;8.50;;;0.75;;
76566;SDS011;65428;53.194;6.132;2023-04-25T09:15:50;6.90;;;0.50;;
76566;SDS011;65428;53.194;6.132;2023-04-25T09:20:51;8.25;;;1.10;;
76566;SDS011;65428;53.194;6.132;2023-04-25T09:23:18;8.73;;;0.80;;
76566;SDS011;65428;53.194;6.132;2023-04-25T09:25:47;6.57;;;0.63;;
76566;SDS011;65428;53.194;6.132;2023-04-25T09:28:14;5.60;;;0.68;;
76566;SDS011;65428;53.194;6.132;2023-04-25T09:30:39;6.28;;;0.60;;
76566;SDS011;65428;53.194;6.132;2023-04-25T09:33:06;7.23;;;0.97;;
76566;SDS011;65428;53.194;6.132;2023-04-25T09:35:40;8.05;;;0.75;;
76566;SDS011;65428;53.194;6.132;2023-04-25T09:38:11;6.43;;;0.60;;
76566;SDS011;65428;53.194;6.132;2023-04-25T09:40:39;7.45;;;0.57;;
76566;SDS011;65428;53.194;6.132;2023-04-25T09:43:09;6.72;;;0.60;;
76566;SDS011;65428;53.194;6.132;2023-04-25T09:45:42;7.03;;;0.70;;
76566;SDS011;65428;53.194;6.132;2023-04-25T09:48:14;9.23;;;0.80;;
76566;SDS011;65428;53.194;6.132;2023-04-25T09:50:43;5.68;;;0.60;;
76566;SDS011;65428;53.194;6.132;2023-04-25T09:53:09;5.87;;;0.60;;
76566;SDS011;65428;53.194;6.132;2023-04-25T09:55:35;6.53;;;0.50;;
76566;SDS011;65428;53.194;6.132;2023-04-25T09:58:03;6.63;;;0.60;;
76566;SDS011;65428;53.194;6.132;2023-04-25T10:00:33;6.82;;;0.32;;
76566;SDS011;65428;53.194;6.132;2023-04-25T10:03:03;8.07;;;0.60;;
76566;SDS011;65428;53.194;6.132;2023-04-25T10:05:32;8.55;;;0.70;;
76566;SDS011;65428;53.194;6.132;2023-04-25T10:08:02;8.77;;;0.93;;
76566;SDS011;65428;53.194;6.132;2023-04-25T10:10:29;10.75;;;1.10;;
76566;SDS011;65428;53.194;6.132;2023-04-25T10:13:00;8.50;;;0.90;;
76566;SDS011;65428;53.194;6.132;2023-04-25T10:15:31;7.87;;;1.27;;
76566;SDS011;65428;53.194;6.132;2023-04-25T10:18:00;8.27;;;0.75;;
76566;SDS011;65428;53.194;6.132;2023-04-25T10:20:26;7.45;;;0.82;;
76566;SDS011;65428;53.194;6.132;2023-04-25T10:22:52;8.40;;;0.68;;
76566;SDS011;65428;53.194;6.132;2023-04-25T10:25:21;6.38;;;0.50;;
76566;SDS011;65428;53.194;6.132;2023-04-25T10:27:50;7.17;;;0.70;;
76566;SDS011;65428;53.194;6.132;2023-04-25T10:30:16;6.90;;;0.75;;
76566;SDS011;65428;53.194;6.132;2023-04-25T10:32:44;6.22;;;0.57;;
76566;SDS011;65428;53.194;6.132;2023-04-25T10:35:13;12.47;;;0.93;;
76566;SDS011;65428;53.194;6.132;2023-04-25T10:41:02;7.88;;;1.10;;
76566;SDS011;65428;53.194;6.132;2023-04-25T10:48:46;6.55;;;0.80;;
76566;SDS011;65428;53.194;6.132;2023-04-25T10:51:31;6.35;;;0.73;;
76566;SDS011;65428;53.194;6.132;2023-04-25T10:53:59;5.30;;;0.60;;
76566;SDS011;65428;53.194;6.132;2023-04-25T10:56:31;3.97;;;0.57;;
76566;SDS011;65428;53.194;6.132;2023-04-25T10:59:13;6.05;;;0.70;;
76566;SDS011;65428;53.194;6.132;2023-04-25T11:04:28;4.57;;;0.50;;
76566;SDS011;65428;53.194;6.132;2023-04-25T11:06:58;8.97;;;0.97;;
76566;SDS011;65428;53.194;6.132;2023-04-25T11:09:35;5.03;;;0.52;;
76566;SDS011;65428;53.194;6.132;2023-04-25T11:12:03;5.25;;;0.50;;
76566;SDS011;65428;53.194;6.132;2023-04-25T11:14:30;2.38;;;0.40;;
76566;SDS011;65428;53.194;6.132;2023-04-25T11:16:56;5.80;;;0.50;;
76566;SDS011;65428;53.194;6.132;2023-04-25T11:19:23;4.20;;;0.30;;
76566;SDS011;65428;53.194;6.132;2023-04-25T11:21:50;6.85;;;0.60;;
76566;SDS011;65428;53.194;6.132;2023-04-25T11:24:19;6.38;;;0.50;;
76566;SDS011;65428;53.194;6.132;2023-04-25T11:26:50;6.28;;;0.60;;
76566;SDS011;65428;53.194;6.132;2023-04-25T11:29:15;6.80;;;0.60;;
76566;SDS011;65428;53.194;6.132;2023-04-25T11:31:44;5.40;;;0.70;;
76566;SDS011;65428;53.194;6.132;2023-04-25T11:34:16;2.60;;;0.28;;
76566;SDS011;65428;53.194;6.132;2023-04-25T11:36:43;2.45;;;0.20;;
76566;SDS011;65428;53.194;6.132;2023-04-25T11:39:10;3.83;;;0.30;;
76566;SDS011;65428;53.194;6.132;2023-04-25T11:41:39;1.50;;;0.20;;
76566;SDS011;65428;53.194;6.132;2023-04-25T11:44:06;2.28;;;0.30;;
76566;SDS011;65428;53.194;6.132;2023-04-25T11:46:35;3.83;;;0.50;;
76566;SDS011;65428;53.194;6.132;2023-04-25T11:49:01;6.00;;;0.70;;
76566;SDS011;65428;53.194;6.132;2023-04-25T11:51:27;4.10;;;0.50;;
76566;SDS011;65428;53.194;6.132;2023-04-25T11:53:53;6.33;;;0.50;;
76566;SDS011;65428;53.194;6.132;2023-04-25T11:56:19;6.30;;;0.80;;
76566;SDS011;65428;53.194;6.132;2023-04-25T11:58:55;5.97;;;0.70;;
76566;SDS011;65428;53.194;6.132;2023-04-25T12:01:26;4.80;;;0.50;;
76566;SDS011;65428;53.194;6.132;2023-04-25T12:04:09;6.78;;;0.60;;
76566;SDS011;65428;53.194;6.132;2023-04-25T12:06:42;4.85;;;0.43;;
76566;SDS011;65428;53.194;6.132;2023-04-25T12:09:09;6.82;;;0.63;;
76566;SDS011;65428;53.194;6.132;2023-04-25T12:11:41;4.93;;;0.43;;
76566;SDS011;65428;53.194;6.132;2023-04-25T12:14:08;5.18;;;0.40;;
76566;SDS011;65428;53.194;6.132;2023-04-25T12:16:42;4.88;;;0.68;;
76566;SDS011;65428;53.194;6.132;2023-04-25T12:19:08;8.00;;;0.93;;
76566;SDS011;65428;53.194;6.132;2023-04-25T12:21:34;5.60;;;0.70;;
76566;SDS011;65428;53.194;6.132;2023-04-25T12:24:10;6.30;;;0.80;;
76566;SDS011;65428;53.194;6.132;2023-04-25T12:29:18;6.75;;;0.70;;
76566;SDS011;65428;53.194;6.132;2023-04-25T12:31:46;5.43;;;0.50;;
76566;SDS011;65428;53.194;6.132;2023-04-25T12:34:11;7.07;;;0.82;;
76566;SDS011;65428;53.194;6.132;2023-04-25T12:36:37;5.57;;;0.80;;
76566;SDS011;65428;53.194;6.132;2023-04-25T12:39:03;5.30;;;0.77;;
76566;SDS011;65428;53.194;6.132;2023-04-25T12:41:29;6.97;;;0.70;;
76566;SDS011;65428;53.194;6.132;2023-04-25T12:43:55;5.63;;;0.87;;
76566;SDS011;65428;53.194;6.132;2023-04-25T12:46:21;4.80;;;0.50;;
76566;SDS011;65428;53.194;6.132;2023-04-25T12:48:47;7.28;;;0.77;;
76566;SDS011;65428;53.194;6.132;2023-04-25T12:51:13;5.32;;;0.52;;
76566;SDS011;65428;53.194;6.132;2023-04-25T12:53:39;7.10;;;0.60;;
76566;SDS011;65428;53.194;6.132;2023-04-25T12:56:06;6.28;;;0.68;;
76566;SDS011;65428;53.194;6.132;2023-04-25T12:58:32;7.05;;;0.65;;
76566;SDS011;65428;53.194;6.132;2023-04-25T13:00:58;7.60;;;0.70;;
76566;SDS011;65428;53.194;6.132;2023-04-25T13:03:27;6.78;;;0.80;;
76566;SDS011;65428;53.194;6.132;2023-04-25T13:05:53;6.25;;;0.60;;
76566;SDS011;65428;53.194;6.132;2023-04-25T13:08:19;6.20;;;0.50;;
76566;SDS011;65428;53.194;6.132;2023-04-25T13:10:45;8.93;;;0.80;;
76566;SDS011;65428;53.194;6.132;2023-04-25T13:13:10;9.23;;;0.80;;
76566;SDS011;65428;53.194;6.132;2023-04-25T13:15:36;7.40;;;0.93;;
76566;SDS011;65428;53.194;6.132;2023-04-25T13:18:02;8.37;;;0.93;;
76566;SDS011;65428;53.194;6.132;2023-04-25T13:20:29;7.75;;;0.80;;
76566;SDS011;65428;53.194;6.132;2023-04-25T13:22:54;5.22;;;0.68;;
76566;SDS011;65428;53.194;6.132;2023-04-25T13:25:20;8.23;;;0.87;;
76566;SDS011;65428;53.194;6.132;2023-04-25T13:27:47;8.32;;;1.17;;
76566;SDS011;65428;53.194;6.132;2023-04-25T13:30:12;7.38;;;0.80;;
76566;SDS011;65428;53.194;6.132;2023-04-25T13:32:38;8.30;;;0.90;;
76566;SDS011;65428;53.194;6.132;2023-04-25T13:35:14;7.07;;;1.05;;
76566;SDS011;65428;53.194;6.132;2023-04-25T13:37:40;7.50;;;0.90;;
76566;SDS011;65428;53.194;6.132;2023-04-25T13:40:09;7.75;;;0.95;;
76566;SDS011;65428;53.194;6.132;2023-04-25T13:42:39;7.57;;;1.00;;
76566;SDS011;65428;53.194;6.132;2023-04-25T13:45:05;7.53;;;1.08;;
76566;SDS011;65428;53.194;6.132;2023-04-25T13:47:32;8.60;;;0.80;;
76566;SDS011;65428;53.194;6.132;2023-04-25T13:49:58;8.35;;;0.80;;
76566;SDS011;65428;53.194;6.132;2023-04-25T13:52:24;6.03;;;0.57;;
76566;SDS011;65428;53.194;6.132;2023-04-25T13:54:50;5.78;;;0.68;;
76566;SDS011;65428;53.194;6.132;2023-04-25T13:57:16;7.87;;;0.80;;
76566;SDS011;65428;53.194;6.132;2023-04-25T13:59:42;7.55;;;0.63;;
76566;SDS011;65428;53.194;6.132;2023-04-25T14:02:08;6.87;;;1.10;;
76566;SDS011;65428;53.194;6.132;2023-04-25T14:04:34;6.95;;;0.65;;
76566;SDS011;65428;53.194;6.132;2023-04-25T14:06:59;3.60;;;0.52;;
76566;SDS011;65428;53.194;6.132;2023-04-25T14:09:27;4.30;;;0.47;;
76566;SDS011;65428;53.194;6.132;2023-04-25T14:11:53;2.80;;;0.47;;
76566;SDS011;65428;53.194;6.132;2023-04-25T14:14:19;3.22;;;0.20;;
76566;SDS011;65428;53.194;6.132;2023-04-25T14:16:48;2.75;;;0.30;;
76566;SDS011;65428;53.194;6.132;2023-04-25T14:19:15;4.20;;;0.60;;
76566;SDS011;65428;53.194;6.132;2023-04-25T14:21:41;6.22;;;0.50;;
76566;SDS011;65428;53.194;6.132;2023-04-25T14:24:10;4.28;;;0.52;;
76566;SDS011;65428;53.194;6.132;2023-04-25T14:26:36;5.13;;;0.40;;
76566;SDS011;65428;53.194;6.132;2023-04-25T14:29:06;7.40;;;0.70;;
76566;SDS011;65428;53.194;6.132;2023-04-25T14:31:32;5.90;;;0.60;;
76566;SDS011;65428;53.194;6.132;2023-04-25T14:33:58;7.17;;;0.43;;
76566;SDS011;65428;53.194;6.132;2023-04-25T14:36:24;7.83;;;0.80;;
76566;SDS011;65428;53.194;6.132;2023-04-25T14:38:51;6.57;;;0.77;;
76566;SDS011;65428;53.194;6.132;2023-04-25T14:41:17;7.93;;;0.63;;
76566;SDS011;65428;53.194;6.132;2023-04-25T14:43:43;10.00;;;0.90;;
76566;SDS011;65428;53.194;6.132;2023-04-25T14:46:10;6.35;;;0.80;;
76566;SDS011;65428;53.194;6.132;2023-04-25T14:48:36;7.07;;;0.60;;
76566;SDS011;65428;53.194;6.132;2023-04-25T14:51:01;5.75;;;0.40;;
76566;SDS011;65428;53.194;6.132;2023-04-25T14:53:27;9.10;;;0.70;;
76566;SDS011;65428;53.194;6.132;2023-04-25T14:55:53;6.25;;;0.40;;
76566;SDS011;65428;53.194;6.132;2023-04-25T14:58:19;6.07;;;0.60;;